Time;durP1;ratioP1;P1;durP2;ratioP2;P2;SDS_P1;SDS_P2;PMS_P1;PMS_P2;Temp;Humidity;BMP_temperature;BMP_pressure;BME280_temperature;BME280_humidity;BME280_pressure;Samples;Min_cycle;Max_cycle;Signal;HPM_P1;HPM_P2
2022/05/29 00:00:25;;;;;;;3.95;3.65;;;11.40;99.90;;;11.88;74.66;97672.25;5123334;28;20683;-56
2022/05/29 00:02:59;;;;;;;4.00;3.70;;;11.30;99.90;;;11.75;74.64;97665.63;5141480;28;20224;-54
2022/05/29 00:05:32;;;;;;;4.20;3.80;;;11.10;99.90;;;11.80;73.74;97664.16;5121583;28;20201;-53
2022/05/29 00:08:08;;;;;;;5.22;3.95;;;11.10;99.90;;;11.93;73.22;97650.28;5150526;28;20225;-56
2022/05/29 00:10:43;;;;;;;4.40;4.00;;;11.10;99.90;;;11.81;75.44;97659.91;5123230;28;20573;-56
2022/05/29 00:13:16;;;;;;;4.30;3.90;;;11.10;99.90;;;11.64;76.41;97647.16;5121493;28;20196;-56
2022/05/29 00:15:49;;;;;;;4.15;3.75;;;11.00;99.90;;;11.64;76.79;97644.59;5131495;28;20663;-57
2022/05/29 00:18:22;;;;;;;3.97;3.67;;;11.00;99.90;;;11.59;76.92;97651.19;5148790;28;20264;-56
2022/05/29 00:20:58;;;;;;;4.18;3.78;;;10.90;99.90;;;11.48;76.44;97645.53;5132829;28;20197;-56
2022/05/29 00:23:37;;;;;;;4.35;4.05;;;10.90;99.90;;;11.58;76.51;97641.75;5150695;28;20240;-55
2022/05/29 00:26:11;;;;;;;4.38;4.00;;;10.90;99.90;;;11.59;76.45;97640.97;5121676;28;20274;-53
2022/05/29 00:28:44;;;;;;;4.70;4.30;;;10.90;99.90;;;11.70;77.01;97641.47;5156344;28;20221;-57
2022/05/29 00:31:17;;;;;;;5.18;4.00;;;11.00;99.90;;;11.69;76.55;97632.91;5121956;28;20259;-53
2022/05/29 00:33:51;;;;;;;4.47;4.10;;;11.00;99.90;;;11.78;76.33;97634.16;5127330;28;21951;-54
2022/05/29 00:36:38;;;;;;;4.68;4.32;;;11.10;99.90;;;11.80;75.75;97630.88;5127531;28;20233;-53
2022/05/29 00:39:17;;;;;;;3.92;3.38;;;11.20;99.90;;;11.74;74.58;97628.03;5142535;28;20232;-54
2022/05/29 00:41:50;;;;;;;3.88;3.47;;;11.10;99.90;;;11.76;74.17;97622.97;5120415;28;20227;-53
2022/05/29 00:44:27;;;;;;;4.63;3.88;;;11.10;99.90;;;11.76;74.54;97635.75;5133372;28;20205;-58
2022/05/29 00:47:11;;;;;;;3.60;3.28;;;11.10;99.90;;;11.78;74.76;97629.03;5141676;28;20346;-50
2022/05/29 00:49:47;;;;;;;4.43;4.00;;;11.10;99.90;;;11.81;74.26;97624.06;5121063;28;20750;-51
2022/05/29 00:52:23;;;;;;;4.05;3.65;;;11.10;99.90;;;11.75;74.56;97634.00;5123392;28;20262;-52
2022/05/29 00:55:04;;;;;;;4.20;3.47;;;11.00;99.90;;;11.77;74.55;97627.28;5136267;28;20615;-51
2022/05/29 00:57:41;;;;;;;4.63;3.70;;;11.10;99.90;;;11.82;75.63;97620.72;5146633;28;20213;-50
2022/05/29 01:00:20;;;;;;;3.92;3.53;;;11.10;99.90;;;11.73;74.12;97616.00;5125045;28;20267;-51
2022/05/29 01:02:54;;;;;;;3.72;3.42;;;11.00;99.90;;;11.67;74.24;97606.34;5153291;28;20290;-51
2022/05/29 01:05:32;;;;;;;3.90;3.50;;;10.90;99.90;;;11.75;75.44;97613.53;5126647;28;20204;-51
2022/05/29 01:08:11;;;;;;;3.65;3.45;;;11.10;99.90;;;11.83;74.50;97613.09;5133793;28;20309;-51
2022/05/29 01:11:08;;;;;;;3.90;3.58;;;11.10;99.90;;;11.90;75.10;97606.59;5129902;28;20292;-50
2022/05/29 01:13:58;;;;;;;3.97;3.67;;;11.20;99.90;;;11.96;74.33;97614.63;5147560;28;20251;-50
2022/05/29 01:16:41;;;;;;;4.55;4.15;;;11.20;99.90;;;12.02;74.46;97612.34;5117173;28;20259;-52
2022/05/29 01:19:41;;;;;;;3.92;3.53;;;11.30;99.90;;;12.10;75.02;97608.47;5133430;28;20291;-51
2022/05/29 01:22:32;;;;;;;4.53;4.10;;;11.40;99.90;;;12.14;74.81;97605.22;5119282;28;20278;-53
2022/05/29 01:25:53;;;;;;;4.22;3.92;;;11.40;99.90;;;12.12;76.88;97594.00;5128411;28;20196;-54
2022/05/29 01:28:44;;;;;;;3.85;3.47;;;11.40;99.90;;;12.12;77.80;97596.56;5148385;28;20325;-58
2022/05/29 01:31:35;;;;;;;4.40;4.00;;;11.50;99.90;;;12.13;79.58;97589.75;5132904;28;20232;-53
2022/05/29 01:34:23;;;;;;;4.43;4.13;;;11.40;99.90;;;12.03;80.49;97591.03;5144405;28;20626;-58
2022/05/29 01:37:12;;;;;;;4.13;3.83;;;11.30;99.90;;;11.95;79.38;97587.22;5147194;28;20260;-56
2022/05/29 01:39:58;;;;;;;4.57;4.20;;;11.30;99.90;;;11.69;79.29;97570.59;5123685;28;20362;-56
2022/05/29 01:42:39;;;;;;;4.88;4.10;;;11.00;99.90;;;11.62;79.98;97572.00;5120913;28;20201;-53
2022/05/29 01:45:20;;;;;;;4.72;4.40;;;10.90;99.90;;;11.47;79.96;97571.22;5137105;28;20262;-54
2022/05/29 01:48:02;;;;;;;5.75;4.55;;;10.70;99.90;;;11.40;82.81;97574.31;5122850;28;20228;-54
2022/05/29 01:50:42;;;;;;;4.38;3.97;;;10.80;99.90;;;11.42;83.12;97573.56;5129549;28;20196;-57
2022/05/29 01:53:23;;;;;;;5.43;5.00;;;10.80;99.90;;;11.40;83.65;97561.50;5134867;28;20238;-57
2022/05/29 01:56:02;;;;;;;5.20;4.80;;;10.80;99.90;;;11.44;83.62;97563.41;5139455;28;20304;-53
2022/05/29 01:58:41;;;;;;;5.30;4.80;;;10.80;99.90;;;11.46;85.24;97564.38;5163558;28;20223;-59
2022/05/29 02:01:18;;;;;;;5.43;5.03;;;10.90;99.90;;;11.46;84.98;97566.91;5120565;28;20232;-52
2022/05/29 02:03:55;;;;;;;4.77;4.33;;;10.90;99.90;;;11.49;86.84;97564.50;5143635;28;20254;-55
2022/05/29 02:07:47;;;;;;;5.27;4.90;;;10.90;99.90;;;11.46;85.14;97551.56;5131651;28;20658;-55
2022/05/29 02:09:35;;;;;;;5.18;4.68;;;10.90;99.90;;;11.47;85.85;97551.66;5133770;28;20311;-56
2022/05/29 02:12:17;;;;;;;5.60;5.10;;;10.90;99.90;;;11.46;84.22;97547.31;5135476;28;20201;-51
2022/05/29 02:14:59;;;;;;;5.33;4.83;;;10.90;99.90;;;11.43;83.71;97543.75;5124629;28;20235;-55
2022/05/29 02:17:42;;;;;;;4.75;4.45;;;10.70;99.90;;;11.44;84.01;97538.69;5125074;28;20687;-56
2022/05/29 02:20:19;;;;;;;6.00;4.90;;;10.80;99.90;;;11.39;84.46;97537.59;5126151;28;20339;-55
2022/05/29 02:22:59;;;;;;;4.83;4.50;;;10.80;99.90;;;11.42;84.14;97526.66;5119044;28;20267;-55
2022/05/29 02:25:34;;;;;;;5.03;4.63;;;10.70;99.90;;;11.44;83.97;97536.13;5129066;28;20205;-56
2022/05/29 02:28:12;;;;;;;5.20;4.80;;;10.80;99.90;;;11.40;83.54;97528.25;5132605;28;20322;-57
2022/05/29 02:30:52;;;;;;;4.93;4.53;;;10.80;99.90;;;11.36;85.74;97536.56;5132849;28;20228;-53
2022/05/29 02:33:33;;;;;;;5.38;4.97;;;10.70;99.90;;;11.39;86.32;97527.38;5129774;28;20196;-53
2022/05/29 02:36:23;;;;;;;5.47;4.35;;;10.70;99.90;;;11.22;85.98;97528.22;5137501;28;20656;-56
2022/05/29 02:39:19;;;;;;;5.03;4.63;;;10.60;99.90;;;11.23;86.85;97519.75;5114962;28;20196;-56
2022/05/29 02:42:06;;;;;;;5.63;5.03;;;10.50;99.90;;;11.24;86.59;97521.50;5132757;28;20212;-54
2022/05/29 02:44:49;;;;;;;5.30;4.90;;;10.50;99.90;;;11.23;86.52;97518.06;5133943;28;20224;-54
2022/05/29 02:47:30;;;;;;;6.03;5.17;;;10.60;99.90;;;11.29;86.57;97530.28;5153501;28;20225;-58
2022/05/29 02:50:19;;;;;;;4.73;4.43;;;10.60;99.90;;;11.30;86.32;97520.91;5131158;28;20197;-58
2022/05/29 02:52:54;;;;;;;4.67;4.37;;;10.60;99.90;;;11.33;86.52;97518.50;5154401;28;20193;-52
2022/05/29 02:55:28;;;;;;;5.00;4.60;;;10.70;99.90;;;11.31;85.61;97518.44;5143789;28;20239;-57
2022/05/29 02:58:06;;;;;;;4.90;4.50;;;10.70;99.90;;;11.34;86.80;97517.72;5140466;28;20736;-54
2022/05/29 03:00:54;;;;;;;5.37;4.90;;;10.60;99.90;;;11.35;85.96;97511.78;5142681;28;20244;-56
2022/05/29 03:03:35;;;;;;;5.73;5.33;;;10.60;99.90;;;11.34;86.36;97512.59;5158332;28;20216;-56
2022/05/29 03:06:27;;;;;;;4.77;4.47;;;10.70;99.90;;;11.28;85.28;97508.94;5122588;28;20319;-56
2022/05/29 03:09:15;;;;;;;5.27;4.83;;;10.60;99.90;;;11.27;85.68;97508.84;5153623;28;20209;-56
2022/05/29 03:11:48;;;;;;;4.60;4.27;;;10.60;99.90;;;11.31;86.07;97508.22;5148322;28;20251;-55
2022/05/29 03:14:34;;;;;;;4.57;4.27;;;10.60;99.90;;;11.37;85.92;97507.63;5128855;28;20738;-53
2022/05/29 03:17:15;;;;;;;4.63;4.20;;;10.70;99.90;;;11.38;85.94;97505.13;5142281;28;20719;-54
2022/05/29 03:20:01;;;;;;;4.90;4.53;;;10.60;99.90;;;11.37;86.10;97505.06;5123231;28;20628;-54
2022/05/29 03:22:46;;;;;;;4.88;4.47;;;10.60;99.90;;;11.35;86.21;97504.09;5138024;28;20229;-52
2022/05/29 03:25:38;;;;;;;5.18;4.63;;;10.60;99.90;;;11.36;85.98;97500.72;5129629;28;20228;-56
2022/05/29 03:28:32;;;;;;;5.23;4.73;;;10.60;99.90;;;11.34;86.89;97493.00;5160525;28;20221;-54
2022/05/29 03:31:09;;;;;;;5.03;4.55;;;10.60;99.90;;;11.38;86.49;97499.13;5122510;28;20240;-52
2022/05/29 03:33:46;;;;;;;5.40;5.00;;;10.60;99.90;;;11.41;86.53;97484.78;5161657;28;20201;-55
2022/05/29 03:36:19;;;;;;;4.60;4.30;;;10.70;99.90;;;11.39;86.76;97490.66;5147480;28;20205;-53
2022/05/29 03:38:53;;;;;;;5.20;4.70;;;10.60;99.90;;;11.28;86.60;97496.13;5120394;28;20314;-51
2022/05/29 03:41:33;;;;;;;4.95;4.55;;;10.50;99.90;;;11.25;86.58;97493.44;5133789;28;20243;-54
2022/05/29 03:44:06;;;;;;;4.70;4.38;;;10.50;99.90;;;11.30;85.99;97491.06;5138109;28;20255;-53
2022/05/29 03:46:40;;;;;;;5.38;4.78;;;10.50;99.90;;;11.30;85.91;97495.31;5122015;28;20795;-54
2022/05/29 03:49:15;;;;;;;5.50;5.10;;;10.50;99.90;;;11.35;85.78;97501.53;5119792;28;20236;-59
2022/05/29 03:51:49;;;;;;;4.72;4.35;;;10.50;99.90;;;11.33;85.65;97495.47;5132604;28;20204;-54
2022/05/29 03:54:24;;;;;;;5.15;4.65;;;10.50;99.90;;;11.26;85.90;97500.28;5151970;28;20200;-53
2022/05/29 03:56:57;;;;;;;5.43;4.90;;;10.50;99.90;;;11.30;85.92;97500.44;5144992;28;20707;-52
2022/05/29 03:59:30;;;;;;;6.30;5.20;;;10.50;99.90;;;11.35;84.68;97496.44;5151709;28;20232;-53
2022/05/29 04:02:04;;;;;;;4.80;4.40;;;10.60;99.90;;;11.39;85.42;97495.75;5121826;28;20254;-50
2022/05/29 04:04:37;;;;;;;4.83;4.43;;;10.60;99.90;;;11.40;84.41;97498.41;5124826;28;20659;-53
2022/05/29 04:07:11;;;;;;;4.80;4.38;;;10.60;99.90;;;11.40;85.14;97498.41;5139654;28;20252;-54
2022/05/29 04:12:36;;;;;;;4.70;4.28;;;10.50;99.90;;;11.30;83.56;97487.66;5159976;28;20625;-53
2022/05/29 04:15:09;;;;;;;4.13;3.83;;;10.50;99.90;;;11.31;83.62;97491.97;5120027;28;20214;-55
2022/05/29 04:17:42;;;;;;;4.80;4.40;;;10.50;99.90;;;11.33;83.59;97486.13;5125879;28;20571;-54
2022/05/29 04:20:16;;;;;;;4.43;4.03;;;10.50;99.90;;;11.42;83.24;97493.38;5143045;28;20711;-52
2022/05/29 04:22:49;;;;;;;4.00;3.70;;;10.60;99.90;;;11.50;83.23;97494.59;5123104;28;20236;-57
2022/05/29 04:25:24;;;;;;;4.57;4.18;;;10.60;99.90;;;11.57;82.91;97500.91;5139016;28;20299;-52
2022/05/29 04:27:57;;;;;;;4.57;4.18;;;10.70;99.90;;;11.60;83.51;97496.78;5137852;28;20256;-51
2022/05/29 04:30:31;;;;;;;4.18;3.88;;;10.70;99.90;;;11.64;83.12;97501.25;5118522;28;20213;-56
2022/05/29 04:33:04;;;;;;;4.00;3.60;;;10.80;99.90;;;11.66;82.19;97501.31;5125266;28;20212;-51
2022/05/29 04:35:40;;;;;;;4.78;4.28;;;10.80;99.90;;;11.70;81.70;97503.22;5125028;28;20228;-52
2022/05/29 04:38:13;;;;;;;3.97;3.78;;;10.90;99.90;;;11.70;81.00;97498.09;5143670;28;20262;-57
2022/05/29 04:40:48;;;;;;;6.43;5.93;;;10.80;99.90;;;11.67;81.77;97501.38;5161928;28;20225;-53
2022/05/29 04:43:21;;;;;;;5.00;4.60;;;10.80;99.90;;;11.64;82.75;97496.13;5142929;28;20603;-56
2022/05/29 04:45:56;;;;;;;5.00;4.60;;;10.80;99.90;;;11.70;81.72;97509.22;5117261;28;20553;-56
2022/05/29 04:48:30;;;;;;;4.00;3.60;;;10.90;99.90;;;11.72;81.57;97515.28;5149077;28;20227;-51
2022/05/29 04:51:06;;;;;;;3.92;3.67;;;10.90;99.90;;;11.74;80.78;97505.13;5135227;28;20201;-55
2022/05/29 04:53:39;;;;;;;3.78;3.58;;;10.90;99.90;;;11.77;81.40;97509.50;5122488;28;20217;-51
2022/05/29 04:56:13;;;;;;;4.47;3.92;;;10.90;99.90;;;11.76;81.15;97512.84;5127618;28;20661;-54
2022/05/29 04:58:46;;;;;;;4.30;3.80;;;10.90;99.90;;;11.74;81.03;97510.25;5162610;28;20270;-58
2022/05/29 05:01:20;;;;;;;3.70;3.50;;;10.90;99.90;;;11.71;81.25;97508.41;5121704;28;20683;-56
2022/05/29 05:03:54;;;;;;;3.88;3.50;;;10.90;99.90;;;11.73;81.06;97511.94;5127518;28;20211;-53
2022/05/29 05:06:28;;;;;;;5.10;3.70;;;10.90;99.90;;;11.78;80.79;97511.25;5142065;28;20228;-54
2022/05/29 05:09:02;;;;;;;3.92;3.40;;;11.00;99.90;;;11.86;80.11;97499.72;5146980;28;20225;-51
2022/05/29 05:11:36;;;;;;;3.80;3.53;;;11.00;99.90;;;11.83;78.94;97504.66;5151323;28;20201;-57
2022/05/29 05:14:09;;;;;;;3.65;3.45;;;11.10;99.90;;;11.85;79.20;97513.31;5122749;28;20299;-53
2022/05/29 05:16:42;;;;;;;4.45;4.00;;;11.10;99.90;;;11.92;78.62;97505.13;5126774;28;20220;-55
2022/05/29 05:19:16;;;;;;;4.25;3.95;;;11.10;99.90;;;11.90;78.48;97497.38;5119572;28;20738;-52
2022/05/29 05:21:50;;;;;;;4.28;3.90;;;11.10;99.90;;;11.92;77.70;97494.88;5120809;28;20236;-53
2022/05/29 05:24:23;;;;;;;4.30;3.90;;;11.10;99.90;;;11.95;77.24;97495.88;5116298;28;20665;-51
2022/05/29 05:26:59;;;;;;;4.43;4.10;;;11.10;99.90;;;12.00;77.54;97492.69;5119284;28;20267;-54
2022/05/29 05:29:32;;;;;;;4.22;3.50;;;11.10;99.90;;;12.05;77.89;97496.34;5112606;28;20228;-56
2022/05/29 05:32:07;;;;;;;4.20;3.90;;;11.20;99.90;;;12.10;78.01;97498.28;5127996;28;20204;-52
2022/05/29 05:34:40;;;;;;;4.50;4.07;;;11.30;99.90;;;12.18;78.06;97494.38;5142624;28;20204;-53
2022/05/29 05:37:14;;;;;;;4.38;3.97;;;11.40;99.90;;;12.20;77.70;97489.31;5128006;28;20228;-51
2022/05/29 05:39:47;;;;;;;3.65;3.17;;;11.40;99.90;;;12.14;75.31;97489.06;5144522;28;20707;-55
2022/05/29 05:42:22;;;;;;;3.97;3.67;;;11.40;99.90;;;12.28;75.04;97493.09;5128537;28;20814;-56
2022/05/29 05:44:55;;;;;;;3.72;3.20;;;11.50;99.90;;;12.34;75.73;97489.94;5152504;28;20621;-55
2022/05/29 05:47:29;;;;;;;5.03;3.70;;;11.60;99.90;;;12.42;74.42;97498.84;5153497;28;20264;-52
2022/05/29 05:50:02;;;;;;;3.53;3.33;;;11.70;99.90;;;12.42;73.51;97488.59;5152876;28;20318;-51
2022/05/29 05:52:35;;;;;;;3.95;3.28;;;11.70;99.90;;;12.57;72.85;97499.50;5137990;28;20308;-52
2022/05/29 05:55:11;;;;;;;6.18;3.70;;;11.80;99.90;;;12.56;73.42;97494.28;5142330;28;20217;-52
2022/05/29 05:57:46;;;;;;;4.20;3.80;;;11.80;99.90;;;12.65;71.62;97494.72;5161065;28;20244;-51
2022/05/29 06:00:20;;;;;;;3.75;3.20;;;11.80;99.90;;;12.68;71.36;97507.66;5124468;28;20235;-50
2022/05/29 06:02:53;;;;;;;3.90;3.10;;;11.90;99.90;;;12.79;69.60;97498.75;5165471;28;20636;-55
2022/05/29 06:05:27;;;;;;;3.15;2.92;;;11.90;99.90;;;12.94;70.19;97490.81;5114896;28;20251;-56
2022/05/29 06:08:00;;;;;;;3.22;2.70;;;12.10;99.90;;;12.82;67.33;97495.44;5153991;28;20712;-58
2022/05/29 06:10:33;;;;;;;3.35;2.80;;;12.00;99.90;;;12.94;67.86;97505.34;5156912;28;20232;-56
2022/05/29 06:13:08;;;;;;;3.20;2.90;;;12.00;99.90;;;12.94;66.00;97501.06;5160427;28;20664;-57
2022/05/29 06:15:47;;;;;;;3.17;2.88;;;12.00;99.90;;;13.33;65.51;97511.25;5118792;28;20197;-57
2022/05/29 06:18:21;;;;;;;3.38;3.00;;;12.40;99.90;;;13.70;63.15;97502.44;5125058;28;20240;-58
2022/05/29 06:20:58;;;;;;;2.85;2.65;;;12.70;99.90;;;13.95;63.28;97507.69;5144524;28;20287;-58
2022/05/29 06:23:33;;;;;;;3.38;2.80;;;12.90;99.90;;;13.79;63.13;97504.47;5124215;28;20224;-55
2022/05/29 06:26:08;;;;;;;3.03;2.80;;;12.80;99.90;;;13.67;65.86;97497.19;5114560;28;20239;-56
2022/05/29 06:28:43;;;;;;;3.38;3.15;;;12.70;99.90;;;13.51;65.12;97496.59;5143321;28;20228;-59
2022/05/29 06:31:16;;;;;;;3.17;2.80;;;12.50;99.90;;;13.11;66.33;97498.34;5114378;28;20234;-57
2022/05/29 06:33:50;;;;;;;3.00;2.80;;;12.20;99.90;;;12.90;67.16;97506.88;5152284;28;20288;-58
2022/05/29 06:36:26;;;;;;;5.00;3.50;;;12.10;99.90;;;12.93;69.83;97501.88;5114786;28;20526;-58
2022/05/29 06:38:59;;;;;;;4.32;3.13;;;12.20;99.90;;;12.88;66.82;97495.69;5127277;28;20208;-57
2022/05/29 06:41:34;;;;;;;4.43;3.13;;;12.10;99.90;;;12.85;67.32;97504.13;5132476;28;20291;-55
2022/05/29 06:44:08;;;;;;;5.63;2.95;;;12.10;99.90;;;12.92;68.45;97507.81;5143972;28;20442;-53
2022/05/29 06:46:41;;;;;;;3.08;2.72;;;12.10;99.90;;;13.01;68.55;97502.19;5126143;28;20285;-57
2022/05/29 06:49:15;;;;;;;3.47;2.85;;;12.20;99.90;;;13.08;66.23;97510.22;5135206;28;20205;-57
2022/05/29 06:51:48;;;;;;;3.75;2.53;;;12.20;99.90;;;13.22;63.45;97505.66;5153921;28;20652;-56
2022/05/29 06:54:21;;;;;;;3.33;2.85;;;12.30;99.90;;;13.11;65.55;97508.59;5134208;28;20289;-58
2022/05/29 06:56:54;;;;;;;3.15;2.72;;;12.30;99.90;;;13.20;65.42;97507.28;5180216;28;20704;-57
2022/05/29 06:59:28;;;;;;;2.92;2.63;;;12.30;99.90;;;13.23;64.19;97509.97;5155201;28;20221;-58
2022/05/29 07:07:59;;;;;;;3.25;2.95;;;12.40;99.90;;;13.33;63.93;97511.25;5041236;28;20263;-55
2022/05/29 07:10:34;;;;;;;3.50;2.88;;;12.50;99.90;;;13.39;63.40;97508.94;5102062;28;20621;-55
2022/05/29 07:13:08;;;;;;;3.38;2.63;;;12.50;99.90;;;13.51;62.53;97509.44;5122821;28;20624;-58
2022/05/29 07:15:42;;;;;;;4.40;3.17;;;12.60;99.90;;;13.62;61.65;97508.97;5121576;28;20297;-56
2022/05/29 07:18:15;;;;;;;3.08;2.60;;;12.70;99.90;;;13.90;63.84;97505.78;5120001;28;20227;-52
2022/05/29 07:20:49;;;;;;;4.13;2.90;;;13.10;99.90;;;14.33;63.15;97503.09;5118648;28;20252;-55
2022/05/29 07:23:22;;;;;;;3.33;2.83;;;13.50;99.90;;;14.83;61.13;97505.78;5139690;28;20205;-55
2022/05/29 07:25:55;;;;;;;3.78;2.85;;;14.00;99.90;;;15.30;58.81;97504.78;5122851;28;20656;-58
2022/05/29 07:28:29;;;;;;;2.90;2.60;;;14.40;99.40;;;15.53;58.09;97512.38;5128585;28;20769;-56
2022/05/29 07:31:04;;;;;;;2.88;2.60;;;14.60;99.60;;;15.41;56.97;97517.16;5121789;28;20216;-58
2022/05/29 07:33:37;;;;;;;4.00;2.72;;;14.40;98.40;;;15.40;57.62;97521.44;5127192;28;20291;-56
2022/05/29 07:36:12;;;;;;;4.10;3.30;;;14.30;99.20;;;15.16;58.77;97516.31;5119716;28;20295;-56
2022/05/29 07:38:45;;;;;;;3.80;2.78;;;14.10;99.90;;;15.07;59.20;97516.03;5121864;28;20196;-55
2022/05/29 07:44:09;;;;;;;3.42;2.80;;;13.70;99.90;;;14.81;61.01;97508.28;5125810;28;20551;-58
2022/05/29 07:46:44;;;;;;;3.92;3.05;;;13.80;99.90;;;14.63;60.34;97513.66;5123790;28;20319;-58
2022/05/29 07:49:17;;;;;;;2.95;2.67;;;13.70;99.90;;;14.74;59.97;97511.47;5123304;28;20299;-57
2022/05/29 07:51:50;;;;;;;3.22;2.83;;;13.70;99.90;;;14.82;61.17;97515.19;5134416;28;20231;-58
2022/05/29 07:54:25;;;;;;;2.95;2.70;;;13.80;99.90;;;14.82;59.38;97519.44;5143589;28;20247;-55
2022/05/29 07:57:05;;;;;;;2.72;2.53;;;13.80;99.90;;;14.88;60.72;97519.69;5131500;28;20609;-58
2022/05/29 07:59:38;;;;;;;3.05;2.58;;;13.80;99.90;;;15.14;60.80;97530.88;5122123;28;20221;-55
2022/05/29 08:02:14;;;;;;;3.30;3.00;;;14.10;99.90;;;15.23;59.37;97522.56;5122083;28;20205;-57
2022/05/29 08:04:48;;;;;;;3.15;2.67;;;14.20;99.90;;;15.25;58.67;97526.06;5124484;28;20621;-59
2022/05/29 08:07:21;;;;;;;5.25;2.80;;;14.30;99.50;;;15.54;59.10;97525.31;5118454;28;20283;-57
2022/05/29 08:09:54;;;;;;;2.55;2.35;;;14.50;99.90;;;15.71;57.69;97523.31;5113044;28;20229;-56
2022/05/29 08:12:28;;;;;;;3.58;2.78;;;14.70;99.30;;;16.01;56.12;97521.63;5120383;28;20228;-59
2022/05/29 08:15:02;;;;;;;3.50;2.60;;;14.90;98.20;;;16.01;56.27;97522.50;5121537;28;20209;-55
2022/05/29 08:17:37;;;;;;;3.97;2.63;;;15.00;97.70;;;16.51;55.27;97522.22;5123468;28;20256;-59
2022/05/29 08:20:13;;;;;;;2.80;2.60;;;15.40;98.00;;;16.91;53.80;97523.34;5138051;28;20584;-58
2022/05/29 08:22:46;;;;;;;3.63;2.85;;;15.90;96.80;;;16.83;54.18;97518.00;5119819;28;20232;-59
2022/05/29 08:31:01;;;;;;;2.30;2.03;;;15.80;95.10;;;17.03;51.47;97505.63;5117190;28;20201;-59
2022/05/29 08:33:37;;;;;;;4.75;2.60;;;15.90;95.40;;;16.87;51.53;97515.53;5123967;28;20221;-57
2022/05/29 08:36:14;;;;;;;3.42;2.25;;;15.80;94.90;;;16.92;51.48;97513.06;5141078;28;20308;-59
2022/05/29 08:38:51;;;;;;;4.65;2.70;;;15.80;95.00;;;16.81;51.34;97509.34;5120656;28;20208;-57
2022/05/29 08:41:34;;;;;;;2.72;2.50;;;15.70;94.70;;;16.66;51.11;97508.06;5127938;28;20262;-58
2022/05/29 08:44:11;;;;;;;3.05;2.35;;;15.60;94.60;;;16.54;51.03;97510.31;5118523;28;20263;-58
2022/05/29 08:46:49;;;;;;;3.50;2.50;;;15.40;94.60;;;16.29;52.04;97507.84;5123089;28;20244;-58
2022/05/29 08:49:28;;;;;;;5.50;2.70;;;15.10;95.10;;;16.02;51.33;97513.94;5165807;28;20207;-59
2022/05/29 08:52:19;;;;;;;3.20;2.38;;;15.00;94.60;;;15.90;51.06;97503.25;5123970;28;20676;-55
2022/05/29 08:54:58;;;;;;;3.70;2.40;;;14.80;94.30;;;15.72;52.50;97503.56;5125307;28;20301;-58
2022/05/29 08:58:03;;;;;;;4.45;2.80;;;14.70;94.90;;;16.05;52.38;97501.13;5118247;28;20232;-57
2022/05/29 09:00:47;;;;;;;4.75;2.80;;;15.00;95.10;;;16.00;52.47;97494.97;5116281;28;20712;-59
2022/05/29 09:03:51;;;;;;;4.55;2.88;;;15.10;94.70;;;16.28;51.67;97496.66;5120227;28;20236;-58
2022/05/29 09:06:35;;;;;;;3.40;2.35;;;15.50;94.10;;;16.47;51.71;97492.88;5126961;28;20316;-55
2022/05/29 09:09:25;;;;;;;3.58;2.53;;;15.90;93.90;;;16.89;48.74;97492.34;5119243;28;20544;-58
2022/05/29 09:12:04;;;;;;;3.63;2.60;;;16.10;92.00;;;17.07;49.10;97494.53;5122352;28;20296;-59
2022/05/29 09:14:46;;;;;;;3.25;2.50;;;16.60;92.00;;;17.51;48.71;97487.88;5121095;28;20262;-52
2022/05/29 09:17:29;;;;;;;4.38;2.38;;;17.10;91.90;;;17.79;46.40;97483.38;5118277;28;20225;-57
2022/05/29 09:20:06;;;;;;;3.65;2.33;;;17.20;90.10;;;17.77;46.29;97487.63;5119912;28;20393;-56
2022/05/29 09:22:44;;;;;;;2.83;2.13;;;17.40;89.90;;;18.11;46.57;97472.84;5129156;28;20205;-59
2022/05/29 09:25:30;;;;;;;3.10;2.30;;;17.50;90.00;;;18.08;45.95;97477.94;5117417;28;20295;-58
2022/05/29 09:28:09;;;;;;;3.10;2.35;;;17.50;89.20;;;17.81;46.95;97473.94;5134490;28;20225;-56
2022/05/29 09:30:42;;;;;;;3.42;2.30;;;17.20;90.30;;;17.74;47.19;97472.91;5119438;28;20649;-58
2022/05/29 09:33:20;;;;;;;2.92;2.50;;;17.00;90.50;;;17.69;47.23;97473.63;5117672;28;20591;-59
2022/05/29 09:36:02;;;;;;;2.95;2.10;;;16.80;90.60;;;17.42;44.11;97477.28;5114447;28;20522;-57
2022/05/29 09:38:42;;;;;;;3.95;2.38;;;16.60;87.00;;;16.98;44.95;97479.66;5112656;28;20216;-58
2022/05/29 09:41:22;;;;;;;2.28;1.90;;;16.20;88.50;;;16.64;46.21;97486.47;5118714;28;20282;-59
2022/05/29 09:44:15;;;;;;;2.33;2.13;;;15.80;89.50;;;16.37;47.08;97480.59;5120284;28;20220;-56
2022/05/29 09:46:51;;;;;;;4.55;2.53;;;15.50;90.40;;;16.15;47.81;97477.38;5121662;28;20752;-59
2022/05/29 09:49:42;;;;;;;3.17;2.20;;;15.20;90.90;;;15.85;47.98;97486.78;5129897;28;20299;-59
2022/05/29 09:52:20;;;;;;;3.20;1.98;;;14.90;91.10;;;15.64;50.20;97484.38;5128223;28;20675;-58
2022/05/29 09:54:58;;;;;;;2.72;2.00;;;14.70;92.50;;;15.33;50.46;97492.00;5114537;28;20557;-57
2022/05/29 09:57:33;;;;;;;3.67;2.30;;;14.40;92.40;;;15.41;50.70;97491.38;5114417;28;20651;-58
2022/05/29 10:00:14;;;;;;;2.28;2.13;;;14.40;92.60;;;15.16;52.06;97500.00;5118559;28;20230;-54
2022/05/29 10:02:48;;;;;;;2.65;2.25;;;14.30;93.50;;;14.92;53.40;97497.50;5116366;28;20283;-58
2022/05/29 10:05:26;;;;;;;3.22;2.08;;;14.00;94.30;;;14.75;55.73;97502.94;5124218;28;20208;-56
2022/05/29 10:08:18;;;;;;;4.07;2.30;;;13.90;96.30;;;14.64;57.18;97510.25;5137049;28;20255;-53
2022/05/29 10:10:53;;;;;;;3.03;2.60;;;13.80;97.30;;;14.63;61.97;97512.78;5119061;28;20228;-58
2022/05/29 10:13:38;;;;;;;4.15;2.70;;;13.70;99.90;;;14.35;61.89;97514.31;5113968;28;20235;-59
2022/05/29 10:16:13;;;;;;;5.50;2.42;;;13.50;99.90;;;14.32;65.20;97506.50;5116167;28;20641;-58
2022/05/29 10:18:46;;;;;;;4.53;2.55;;;13.40;99.90;;;14.21;67.12;97518.09;5132403;28;20227;-58
2022/05/29 10:21:25;;;;;;;4.38;2.60;;;13.20;99.90;;;14.11;67.89;97516.88;5137796;28;20253;-57
2022/05/29 10:24:21;;;;;;;2.97;2.60;;;13.00;99.90;;;13.84;68.97;97521.81;5113999;28;20204;-59
2022/05/29 10:26:59;;;;;;;3.92;3.10;;;12.80;99.90;;;13.50;70.40;97529.88;5112703;28;20673;-56
2022/05/29 10:29:36;;;;;;;2.97;2.20;;;12.50;99.90;;;13.40;69.33;97538.94;5127002;28;20672;-58
2022/05/29 10:32:22;;;;;;;4.05;2.70;;;12.40;99.90;;;13.11;72.62;97549.66;5123051;28;20246;-57
2022/05/29 10:35:22;;;;;;;4.25;3.15;;;12.10;99.90;;;12.85;74.95;97544.28;5121768;28;20278;-55
2022/05/29 10:37:57;;;;;;;6.93;3.67;;;12.00;99.90;;;12.62;77.47;97554.44;5147389;28;20244;-57
2022/05/29 10:40:32;;;;;;;4.60;3.15;;;11.80;99.90;;;12.31;79.38;97551.31;5127457;28;20252;-55
2022/05/29 10:43:06;;;;;;;5.35;3.67;;;11.60;99.90;;;11.89;81.38;97566.44;5124907;28;20281;-57
2022/05/29 10:45:44;;;;;;;5.10;4.22;;;11.20;99.90;;;11.61;84.56;97566.78;5113896;28;20745;-58
2022/05/29 10:48:42;;;;;;;5.50;4.03;;;10.90;99.90;;;11.30;86.43;97583.19;5114660;28;20308;-57
2022/05/29 10:51:23;;;;;;;5.55;4.00;;;10.70;99.90;;;11.12;89.43;97584.84;5121167;28;20304;-59
2022/05/29 10:54:13;;;;;;;4.50;3.78;;;10.50;99.90;;;10.85;89.76;97594.56;5129911;28;20236;-61
2022/05/29 10:57:06;;;;;;;3.80;3.13;;;10.20;99.90;;;10.53;90.11;97593.72;5116789;28;20248;-62
2022/05/29 11:00:10;;;;;;;5.10;3.92;;;10.00;99.90;;;10.44;91.21;97599.22;5114753;28;20232;-61
2022/05/29 11:03:19;;;;;;;6.13;4.15;;;9.90;99.90;;;10.29;92.58;97599.31;5113845;28;20205;-61
2022/05/29 11:06:38;;;;;;;4.80;4.30;;;9.70;99.90;;;10.09;93.77;97599.88;5135251;28;20251;-61
2022/05/29 11:09:52;;;;;;;4.63;4.23;;;9.60;99.90;;;9.89;95.74;97606.44;5129267;28;20286;-61
2022/05/29 11:13:03;;;;;;;5.00;3.83;;;9.40;99.90;;;9.86;96.53;97612.25;5114032;28;20193;-61
2022/05/29 11:15:47;;;;;;;4.27;3.90;;;9.30;99.90;;;9.85;97.73;97615.59;5116598;28;20237;-61
2022/05/29 11:18:48;;;;;;;4.07;3.77;;;9.30;99.90;;;9.79;98.13;97616.94;5114943;28;20256;-64
2022/05/29 11:21:33;;;;;;;3.83;3.47;;;9.10;99.90;;;9.70;98.52;97615.63;5112568;28;20278;-62
2022/05/29 11:24:40;;;;;;;4.50;4.10;;;9.10;99.90;;;9.68;99.70;97621.44;5116827;28;20296;-62
2022/05/29 11:27:29;;;;;;;3.70;3.47;;;9.10;99.90;;;9.66;100.00;97621.34;5115413;28;20255;-59